createdAt,value
2018-06-08T00:01:19.057Z,8.45
2018-06-08T00:07:14.198Z,8.17
2018-06-08T00:13:09.069Z,8.06
2018-06-08T00:19:04.052Z,8.43
2018-06-08T00:24:59.081Z,8.01
2018-06-08T00:30:54.104Z,6.83
2018-06-08T00:42:44.059Z,6.6
2018-06-08T00:48:39.069Z,6.89
2018-06-08T00:54:34.087Z,6
2018-06-08T01:00:29.102Z,5.86
2018-06-08T01:06:24.070Z,4.71
2018-06-08T01:12:19.077Z,4.78
2018-06-08T01:18:14.126Z,4.8
2018-06-08T01:24:09.135Z,5.1
2018-06-08T01:30:04.137Z,5.81
2018-06-08T01:35:59.100Z,6.06
2018-06-08T01:41:54.127Z,7.94
2018-06-08T01:47:49.186Z,9.56
2018-06-08T01:53:44.102Z,9.22
2018-06-08T01:59:39.180Z,8.07
2018-06-08T02:05:34.164Z,7.29
2018-06-08T02:11:29.155Z,7.29
2018-06-08T02:17:24.134Z,7.24
2018-06-08T02:23:19.156Z,7.27
2018-06-08T02:29:14.142Z,6.82
2018-06-08T02:35:09.273Z,6.73
2018-06-08T02:41:04.155Z,6.2
2018-06-08T02:46:59.194Z,6.18
2018-06-08T02:52:54.204Z,5.55
2018-06-08T02:58:49.270Z,4.86
2018-06-08T03:04:44.168Z,4.61
2018-06-08T03:10:39.195Z,4.74
2018-06-08T03:16:34.176Z,4.1
2018-06-08T03:22:29.226Z,4.1
2018-06-08T03:28:24.223Z,3.74
2018-06-08T03:34:19.264Z,3.41
2018-06-08T03:40:14.179Z,4.13
2018-06-08T03:46:09.208Z,4.07
2018-06-08T03:52:04.202Z,3.73
2018-06-08T03:57:59.281Z,3.8
2018-06-08T04:03:54.455Z,3.12
2018-06-08T04:09:49.234Z,3.75
2018-06-08T04:15:44.288Z,3.75
2018-06-08T04:21:39.252Z,3.07
2018-06-08T04:27:34.258Z,3.6
2018-06-08T04:33:29.230Z,3.53
2018-06-08T04:39:24.278Z,3.85
2018-06-08T04:45:19.254Z,3.94
2018-06-08T04:51:14.266Z,4.44
2018-06-08T04:57:09.264Z,5.83
2018-06-08T05:03:04.301Z,6.1
2018-06-08T05:08:59.293Z,9.33
2018-06-08T05:14:54.274Z,8.17
2018-06-08T05:20:49.897Z,7.93
2018-06-08T05:26:44.267Z,7.85
2018-06-08T05:32:39.307Z,7.34
2018-06-08T05:38:34.291Z,7.6
2018-06-08T05:44:29.258Z,5.9
2018-06-08T05:50:24.318Z,6.53
2018-06-08T05:56:19.251Z,7.46
2018-06-08T06:02:14.299Z,7.67
2018-06-08T06:08:09.322Z,7.2
2018-06-08T06:14:04.304Z,6.96
2018-06-08T06:19:59.297Z,6.56
2018-06-08T06:25:54.305Z,7.49
2018-06-08T06:31:49.391Z,7.66
2018-06-08T06:37:44.317Z,7.24
2018-06-08T06:43:39.378Z,6.6
2018-06-08T06:49:34.338Z,6.38
2018-06-08T06:55:29.361Z,5.34
2018-06-08T07:01:24.362Z,4.8
2018-06-08T07:07:19.306Z,4.2
2018-06-08T07:13:14.528Z,3.57
2018-06-08T07:19:09.353Z,3.49
2018-06-08T07:25:04.489Z,3.69
2018-06-08T07:30:59.349Z,3.48
2018-06-08T07:36:54.333Z,3.12
2018-06-08T07:42:49.383Z,3.27
2018-06-08T07:48:44.388Z,3.45
2018-06-08T07:54:39.461Z,3.09
2018-06-08T08:00:34.397Z,3.12
2018-06-08T08:06:29.353Z,3.18
2018-06-08T08:12:24.373Z,2.79
2018-06-08T08:18:19.388Z,2.92
2018-06-08T08:24:14.567Z,2.87
2018-06-08T08:30:10.323Z,3.67
2018-06-08T08:36:04.562Z,3.34
2018-06-08T08:41:59.417Z,3.45
2018-06-08T08:47:54.438Z,2.05
2018-06-08T08:53:49.415Z,2.27
2018-06-08T08:59:44.399Z,2.87
2018-06-08T09:05:39.452Z,3.12
2018-06-08T09:11:34.562Z,2.39
2018-06-08T09:17:29.436Z,2
2018-06-08T09:23:24.411Z,2.13
2018-06-08T09:29:19.918Z,2.55
2018-06-08T09:35:15.621Z,3.37
2018-06-08T09:41:10.316Z,2.43
2018-06-08T09:47:04.450Z,1.86
2018-06-08T09:53:00.223Z,1.2
2018-06-08T09:58:54.465Z,1.85
2018-06-08T10:04:50.369Z,1.15
2018-06-08T10:10:44.462Z,1.18
2018-06-08T10:16:40.244Z,1.67
2018-06-08T10:22:34.480Z,2.26
2018-06-08T10:28:29.461Z,1.44
2018-06-08T10:34:24.506Z,1.34
2018-06-08T10:40:19.489Z,0.67
2018-06-08T10:46:14.526Z,0.6
2018-06-08T10:52:09.520Z,0.66
2018-06-08T10:58:04.527Z,1.55
2018-06-08T11:04:01.122Z,0.56
2018-06-08T11:09:54.543Z,0.57
2018-06-08T11:15:49.521Z,0.7
2018-06-08T11:21:44.521Z,0.72
2018-06-08T11:27:39.553Z,0.64
2018-06-08T11:33:35.223Z,0.57
2018-06-08T11:39:29.962Z,1.1
2018-06-08T11:45:24.576Z,0.64
2018-06-08T11:51:20.205Z,0.74
2018-06-08T11:57:14.979Z,0.68
2018-06-08T12:03:09.589Z,0.77
2018-06-08T12:09:04.609Z,1.08
2018-06-08T12:14:59.559Z,1.12
2018-06-08T12:20:54.898Z,0.77
2018-06-08T12:26:56.596Z,1.13
2018-06-08T12:32:44.574Z,0.72
2018-06-08T12:38:39.866Z,0.59
2018-06-08T12:44:34.588Z,0.67
2018-06-08T12:50:30.385Z,0.55
2018-06-08T12:56:24.623Z,0.71
2018-06-08T13:02:20.222Z,0.72
2018-06-08T13:08:15.688Z,0.87
2018-06-08T13:14:10.269Z,0.8
2018-06-08T13:20:05.964Z,0.57
2018-06-08T13:25:59.640Z,1.14
2018-06-08T13:31:54.633Z,0.62
2018-06-08T13:37:50.053Z,0.91
2018-06-08T13:43:44.667Z,0.76
2018-06-08T13:49:39.607Z,0.62
2018-06-08T13:55:34.750Z,0.79
2018-06-08T14:01:29.737Z,0.83
2018-06-08T14:07:25.324Z,0.9
2018-06-08T14:13:19.645Z,0.82
2018-06-08T14:19:15.580Z,0.57
2018-06-08T14:25:09.677Z,0.96
2018-06-08T14:31:04.650Z,0.93
2018-06-08T14:36:59.698Z,1.1
2018-06-08T14:48:49.720Z,3.34
2018-06-08T14:54:44.703Z,3.64
2018-06-08T15:00:39.704Z,2.99
2018-06-08T15:06:36.452Z,2.97
2018-06-08T15:12:29.694Z,3.05
2018-06-08T15:18:25.634Z,2.8
2018-06-08T15:24:20.129Z,2.72
2018-06-08T15:30:14.711Z,2.41
2018-06-08T15:36:10.150Z,2.42
2018-06-08T15:42:05.078Z,2.57
2018-06-08T15:47:59.749Z,2.87
2018-06-08T15:53:54.746Z,2.57
2018-06-08T15:59:49.850Z,2.23
2018-06-08T16:05:44.788Z,2.36
2018-06-08T16:11:39.891Z,2.33
2018-06-08T16:17:34.891Z,2.79
2018-06-08T16:23:29.768Z,2.86
2018-06-08T16:29:24.824Z,2.78
2018-06-08T16:35:21.762Z,2.62
2018-06-08T16:41:15.780Z,2.73
2018-06-08T16:47:10.444Z,2.94
2018-06-08T16:53:04.778Z,3.12
2018-06-08T16:58:59.784Z,3.02
2018-06-08T17:04:54.842Z,2.62
2018-06-08T17:10:49.767Z,2.93
2018-06-08T17:16:44.801Z,2.82
2018-06-08T17:22:39.826Z,3.12
2018-06-08T17:28:34.785Z,3.01
2018-06-08T17:34:29.872Z,2.96
2018-06-08T17:40:25.328Z,2.88
2018-06-08T17:46:19.842Z,3.19
2018-06-08T17:52:14.828Z,2.94
2018-06-08T17:58:10.797Z,3.47
2018-06-08T18:04:07.294Z,2.69
2018-06-08T18:09:59.876Z,3.1
2018-06-08T18:15:54.818Z,3.13
2018-06-08T18:21:51.706Z,3.36
2018-06-08T18:27:44.828Z,3.25
2018-06-08T18:33:39.863Z,3.07
2018-06-08T18:39:34.850Z,2.64
2018-06-08T18:45:29.875Z,3.42
2018-06-08T18:51:25.930Z,3.35
2018-06-08T18:57:19.983Z,13.7
2018-06-08T19:03:15.286Z,6.3
2018-06-08T19:09:09.943Z,3.58
2018-06-08T19:15:06.264Z,3.64
2018-06-08T19:20:59.961Z,3.92
2018-06-08T19:26:55.448Z,4.18
2018-06-08T19:32:50.753Z,4.79
2018-06-08T19:38:45.003Z,5.07
2018-06-08T19:44:39.916Z,4.73
2018-06-08T19:50:34.881Z,4.65
2018-06-08T19:56:29.953Z,4.53
2018-06-08T20:02:25.858Z,4.69
2018-06-08T20:08:19.902Z,4.52
2018-06-08T20:14:18.395Z,4.77
2018-06-08T20:20:10.517Z,4.69
2018-06-08T20:26:04.905Z,4.46
2018-06-08T20:32:00.444Z,4.33
2018-06-08T20:37:54.994Z,4.89
2018-06-08T20:43:49.940Z,5.31
2018-06-08T20:49:44.957Z,4.62
2018-06-08T20:55:40.481Z,5.57
2018-06-08T21:01:35.523Z,5.79
2018-06-08T21:07:29.978Z,4.83
2018-06-08T21:13:24.949Z,5.47
2018-06-08T21:19:19.957Z,5.97
2018-06-08T21:25:14.933Z,5.7
2018-06-08T21:31:10.181Z,4.55
2018-06-08T21:37:05.237Z,4.53
2018-06-08T21:43:00.031Z,4.75
2018-06-08T21:48:54.951Z,4.43
2018-06-08T21:54:49.993Z,5.06
2018-06-08T22:00:44.979Z,4.99
2018-06-08T22:06:39.985Z,4.71
2018-06-08T22:12:34.993Z,4.74
2018-06-08T22:18:30.014Z,4.87
2018-06-08T22:24:25.034Z,5.61
2018-06-08T22:30:20.859Z,4.8
2018-06-08T22:36:15.028Z,5.19
2018-06-08T22:42:10.027Z,5.46
2018-06-08T22:48:05.141Z,6.24
2018-06-08T22:54:00.012Z,6.12
2018-06-08T22:59:55.051Z,5.76
2018-06-08T23:05:50.070Z,6.44
2018-06-08T23:11:45.041Z,5.96
2018-06-08T23:17:40.011Z,6.07
2018-06-08T23:23:35.040Z,7.15
2018-06-08T23:29:30.065Z,7.07
2018-06-08T23:35:25.149Z,6.93
2018-06-08T23:41:20.041Z,5.75
2018-06-08T23:47:15.060Z,5.66
2018-06-08T23:53:10.040Z,6.31
2018-06-08T23:59:05.075Z,6.58
